Time;durP1;ratioP1;P1;durP2;ratioP2;P2;SDS_P1;SDS_P2;PMS_P1;PMS_P2;Temp;Humidity;BMP_temperature;BMP_pressure;BME280_temperature;BME280_humidity;BME280_pressure;Samples;Min_cycle;Max_cycle;Signal;HPM_P1;HPM_P2
2022/12/25 00:00:19;;;;;;;;;;;;;;;;;;5116683;27;19915;-80
2022/12/25 00:03:05;;;;;;;;;;;;;;;;;;5125834;27;19918;-78
2022/12/25 00:05:52;;;;;;;;;;;;;;;;;;5126205;27;20457;-80
2022/12/25 00:08:38;;;;;;;;;;;;;;;;;;5122907;27;19911;-79
2022/12/25 00:11:25;;;;;;;;;;;;;;;;;;5117306;27;20625;-79
2022/12/25 00:14:11;;;;;;;;;;;;;;;;;;5117001;27;19930;-80
2022/12/25 00:16:58;;;;;;;;;;;;;;;;;;5120516;27;19917;-80
2022/12/25 00:19:44;;;;;;;;;;;;;;;;;;5124372;27;19927;-78
2022/12/25 00:22:31;;;;;;;;;;;;;;;;;;5122917;27;19926;-80
2022/12/25 00:25:17;;;;;;;;;;;;;;;;;;5121229;27;19915;-79
2022/12/25 00:28:04;;;;;;;;;;;;;;;;;;5129269;27;19919;-78
2022/12/25 00:30:50;;;;;;;;;;;;;;;;;;5126881;27;19930;-78
2022/12/25 00:33:37;;;;;;;;;;;;;;;;;;5126139;27;19919;-77
2022/12/25 00:36:23;;;;;;;;;;;;;;;;;;5124475;27;19916;-77
2022/12/25 00:39:10;;;;;;;;;;;;;;;;;;5124875;27;20318;-77
2022/12/25 00:45:02;;;;;;;;;;;;;;;;;;5123994;27;19938;-79
2022/12/25 00:47:48;;;;;;;;;;;;;;;;;;5120761;27;19914;-78
2022/12/25 00:50:35;;;;;;;;;;;;;;;;;;5129063;27;19981;-78
2022/12/25 00:53:21;;;;;;;;;;;;;;;;;;5126502;27;19912;-77
2022/12/25 00:56:08;;;;;;;;;;;;;;;;;;5129997;27;20030;-78
2022/12/25 00:58:54;;;;;;;;;;;;;;;;;;5128859;27;19914;-77
2022/12/25 01:01:41;;;;;;;;;;;;;;;;;;5126330;27;19912;-78
2022/12/25 01:04:27;;;;;;;;;;;;;;;;;;5127146;27;19923;-78
2022/12/25 01:07:15;;;;;;;;;;;;;;;;;;5137478;27;20385;-77
2022/12/25 01:13:07;;;;;;;;;;;;;;;;;;5125483;27;19922;-77
2022/12/25 01:15:53;;;;;;;;;;;;;;;;;;5127180;27;19911;-77
2022/12/25 01:18:40;;;;;;;;;;;;;;;;;;5121005;27;19918;-77
2022/12/25 01:21:27;;;;;;;;;;;;;;;;;;5130340;27;19934;-77
2022/12/25 01:24:13;;;;;;;;;;;;;;;;;;5126259;27;19916;-79
2022/12/25 01:27:00;;;;;;;;;;;;;;;;;;5116969;27;19926;-80
2022/12/25 01:29:46;;;;;;;;;;;;;;;;;;5110802;27;20291;-79
2022/12/25 01:32:33;;;;;;;;;;;;;;;;;;5125131;27;19912;-79
2022/12/25 01:35:19;;;;;;;;;;;;;;;;;;5126932;27;19912;-78
2022/12/25 01:38:06;;;;;;;;;;;;;;;;;;5119268;27;19919;-79
2022/12/25 01:40:52;;;;;;;;;;;;;;;;;;5126526;27;19911;-78
2022/12/25 01:43:39;;;;;;;;;;;;;;;;;;5126464;27;19922;-77
2022/12/25 01:46:25;;;;;;;;;;;;;;;;;;5128929;27;19915;-78
2022/12/25 01:49:11;;;;;;;;;;;;;;;;;;5128437;27;20314;-78
2022/12/25 01:51:58;;;;;;;;;;;;;;;;;;5115051;27;19921;-78
2022/12/25 01:54:44;;;;;;;;;;;;;;;;;;5110763;27;19908;-78
2022/12/25 01:57:31;;;;;;;;;;;;;;;;;;5117008;27;19911;-77
2022/12/25 02:00:17;;;;;;;;;;;;;;;;;;5118221;27;19922;-77
2022/12/25 02:03:04;;;;;;;;;;;;;;;;;;5126218;27;19907;-78
2022/12/25 02:05:50;;;;;;;;;;;;;;;;;;5101236;27;19945;-78
2022/12/25 02:08:37;;;;;;;;;;;;;;;;;;5114836;27;19916;-76
2022/12/25 02:14:28;;;;;;;;;;;;;;;;;;5121424;27;19919;-78
2022/12/25 02:17:15;;;;;;;;;;;;;;;;;;5128165;27;19919;-77
2022/12/25 02:20:02;;;;;;;;;;;;;;;;;;5115443;27;20363;-78
2022/12/25 02:22:48;;;;;;;;;;;;;;;;;;5116388;27;19919;-79
2022/12/25 02:25:35;;;;;;;;;;;;;;;;;;5123736;27;20334;-79
2022/12/25 02:28:21;;;;;;;;;;;;;;;;;;5119506;27;19918;-77
2022/12/25 02:31:08;;;;;;;;;;;;;;;;;;5120331;27;19930;-78
2022/12/25 02:34:03;;;;;;;;;;;;;;;;;;5121424;27;19918;-78
2022/12/25 02:36:50;;;;;;;;;;;;;;;;;;5119677;27;19915;-78
2022/12/25 03:07:50;;;;;;;;;;;;;;;;;;5124517;27;19912;-79
2022/12/25 03:13:42;;;;;;;;;;;;;;;;;;5122479;27;19911;-78
2022/12/25 03:29:10;;;;;;;;;;;;;;;;;;5046298;28;19917;-79
2022/12/25 03:31:56;;;;;;;;;;;;;;;;;;5117072;27;19918;-79
2022/12/25 04:36:39;;;;;;;;;;;;;;;;;;5121743;27;19922;-78
2022/12/25 04:39:26;;;;;;;;;;;;;;;;;;5119758;28;19918;-78
2022/12/25 04:42:12;;;;;;;;;;;;;;;;;;5105474;28;19908;-79
2022/12/25 04:44:59;;;;;;;;;;;;;;;;;;5121720;28;19926;-76
2022/12/25 04:47:45;;;;;;;;;;;;;;;;;;5115604;27;19908;-78
2022/12/25 04:50:32;;;;;;;;;;;;;;;;;;5124331;27;19953;-78
2022/12/25 04:53:18;;;;;;;;;;;;;;;;;;5128083;27;19916;-79
2022/12/25 04:56:07;;;;;;;;;;;;;;;;;;5121497;27;19915;-78
2022/12/25 04:58:53;;;;;;;;;;;;;;;;;;5123535;27;19911;-78
2022/12/25 05:01:40;;;;;;;;;;;;;;;;;;5122738;27;19912;-77
2022/12/25 05:04:26;;;;;;;;;;;;;;;;;;5119586;27;19911;-78
2022/12/25 05:07:12;;;;;;;;;;;;;;;;;;5128078;27;19918;-79
2022/12/25 05:09:59;;;;;;;;;;;;;;;;;;5125302;27;20055;-77
2022/12/25 05:12:45;;;;;;;;;;;;;;;;;;5126810;27;19908;-77
2022/12/25 05:15:32;;;;;;;;;;;;;;;;;;5121164;27;19918;-78
2022/12/25 05:18:18;;;;;;;;;;;;;;;;;;5118933;27;20468;-79
2022/12/25 05:21:06;;;;;;;;;;;;;;;;;;5120608;27;19923;-79
2022/12/25 05:23:53;;;;;;;;;;;;;;;;;;5126440;27;19922;-78
2022/12/25 05:26:39;;;;;;;;;;;;;;;;;;5121131;27;19912;-78
2022/12/25 05:29:26;;;;;;;;;;;;;;;;;;5120657;27;19938;-79
2022/12/25 05:32:12;;;;;;;;;;;;;;;;;;5115074;27;19915;-78
2022/12/25 05:34:59;;;;;;;;;;;;;;;;;;5124127;27;19912;-79
2022/12/25 05:37:46;;;;;;;;;;;;;;;;;;5122286;27;19915;-78
2022/12/25 05:40:32;;;;;;;;;;;;;;;;;;5123272;27;19912;-77
2022/12/25 05:43:19;;;;;;;;;;;;;;;;;;5124907;27;19935;-78
2022/12/25 05:46:05;;;;;;;;;;;;;;;;;;5117840;27;19918;-78
2022/12/25 05:48:52;;;;;;;;;;;;;;;;;;5120233;27;19911;-78
2022/12/25 05:51:38;;;;;;;;;;;;;;;;;;5117860;27;19953;-78
2022/12/25 05:54:25;;;;;;;;;;;;;;;;;;5117392;27;19912;-79
2022/12/25 05:57:11;;;;;;;;;;;;;;;;;;5128346;27;19911;-79
2022/12/25 05:59:58;;;;;;;;;;;;;;;;;;5119513;27;19920;-80
2022/12/25 06:02:44;;;;;;;;;;;;;;;;;;5124247;27;19911;-79
2022/12/25 06:05:31;;;;;;;;;;;;;;;;;;5125478;27;19911;-79
2022/12/25 06:08:17;;;;;;;;;;;;;;;;;;5121679;27;19912;-79
2022/12/25 06:11:04;;;;;;;;;;;;;;;;;;5111455;27;19926;-79
2022/12/25 06:13:50;;;;;;;;;;;;;;;;;;5106066;27;19912;-81
2022/12/25 06:16:37;;;;;;;;;;;;;;;;;;5123602;27;19946;-80
2022/12/25 06:19:24;;;;;;;;;;;;;;;;;;5118842;27;19922;-80
2022/12/25 06:22:10;;;;;;;;;;;;;;;;;;5120634;27;20368;-80
2022/12/25 06:24:57;;;;;;;;;;;;;;;;;;5120415;27;19912;-79
2022/12/25 06:27:43;;;;;;;;;;;;;;;;;;5123672;27;19977;-79
2022/12/25 06:30:30;;;;;;;;;;;;;;;;;;5121387;27;19927;-80
2022/12/25 06:33:16;;;;;;;;;;;;;;;;;;5123544;27;19916;-78
2022/12/25 06:36:03;;;;;;;;;;;;;;;;;;5116448;27;19916;-80
2022/12/25 06:38:49;;;;;;;;;;;;;;;;;;5115437;27;19923;-79
2022/12/25 06:41:35;;;;;;;;;;;;;;;;;;5127552;27;19919;-79
2022/12/25 06:44:22;;;;;;;;;;;;;;;;;;5108968;27;20571;-80
2022/12/25 06:47:09;;;;;;;;;;;;;;;;;;5119043;27;19912;-79
2022/12/25 06:49:55;;;;;;;;;;;;;;;;;;5111140;27;19927;-79
2022/12/25 06:52:42;;;;;;;;;;;;;;;;;;5111581;27;19923;-79
2022/12/25 06:55:28;;;;;;;;;;;;;;;;;;5125174;27;19923;-79
2022/12/25 06:58:15;;;;;;;;;;;;;;;;;;5119622;27;20729;-78
2022/12/25 07:01:01;;;;;;;;;;;;;;;;;;5124867;27;20413;-78
2022/12/25 07:03:48;;;;;;;;;;;;;;;;;;5125001;27;19950;-80
2022/12/25 07:06:34;;;;;;;;;;;;;;;;;;5124542;27;19912;-79
2022/12/25 07:09:21;;;;;;;;;;;;;;;;;;5124205;27;20379;-78
2022/12/25 07:12:07;;;;;;;;;;;;;;;;;;5115895;27;19923;-76
2022/12/25 07:14:54;;;;;;;;;;;;;;;;;;5123517;27;20363;-77
2022/12/25 07:17:40;;;;;;;;;;;;;;;;;;5103827;27;19911;-77
2022/12/25 07:20:28;;;;;;;;;;;;;;;;;;5125111;27;19911;-78
2022/12/25 07:23:15;;;;;;;;;;;;;;;;;;5122610;27;19923;-78
2022/12/25 07:26:02;;;;;;;;;;;;;;;;;;5125365;27;19923;-77
2022/12/25 07:28:48;;;;;;;;;;;;;;;;;;5117856;27;19928;-77
2022/12/25 07:31:36;;;;;;;;;;;;;;;;;;5117357;27;19924;-77
2022/12/25 07:34:22;;;;;;;;;;;;;;;;;;5119357;27;19942;-78
2022/12/25 07:37:09;;;;;;;;;;;;;;;;;;5118337;27;20663;-77
2022/12/25 07:39:55;;;;;;;;;;;;;;;;;;5118841;27;19918;-77
2022/12/25 07:42:42;;;;;;;;;;;;;;;;;;5122551;27;19911;-78
2022/12/25 07:45:28;;;;;;;;;;;;;;;;;;5125070;27;19912;-78
2022/12/25 07:48:15;;;;;;;;;;;;;;;;;;5125526;27;19915;-77
2022/12/25 07:51:01;;;;;;;;;;;;;;;;;;5113707;27;19926;-78
2022/12/25 07:53:48;;;;;;;;;;;;;;;;;;5121754;27;19919;-78
2022/12/25 07:56:45;;;;;;;;;;;;;;;;;;;;;
2022/12/25 07:59:35;;;;;;;;;;;;;;;;;;5110060;27;19922;-78
2022/12/25 08:02:27;;;;;;;;;;;;;;;;;;5117372;28;19911;-78
2022/12/25 08:05:13;;;;;;;;;;;;;;;;;;5119297;28;20338;-77
2022/12/25 08:08:00;;;;;;;;;;;;;;;;;;5120600;27;19919;-78
2022/12/25 08:10:46;;;;;;;;;;;;;;;;;;5115689;28;19915;-78
2022/12/25 08:13:33;;;;;;;;;;;;;;;;;;5123901;27;19915;-77
2022/12/25 08:16:19;;;;;;;;;;;;;;;;;;5119910;28;19934;-76
2022/12/25 08:19:06;;;;;;;;;;;;;;;;;;5121737;27;20375;-79
2022/12/25 08:21:52;;;;;;;;;;;;;;;;;;5119749;28;19930;-79
2022/12/25 08:24:39;;;;;;;;;;;;;;;;;;5118008;27;20358;-78
2022/12/25 08:30:47;;;;;;;;;;;;;;;;;;5060323;28;19920;-78
2022/12/25 08:33:34;;;;;;;;;;;;;;;;;;5109758;27;19914;-81
2022/12/25 08:36:20;;;;;;;;;;;;;;;;;;5107274;27;20290;-77
2022/12/25 08:39:07;;;;;;;;;;;;;;;;;;5133933;27;19911;-79
2022/12/25 08:41:56;;;;;;;;;;;;;;;;;;5124691;27;19912;-78
2022/12/25 08:44:43;;;;;;;;;;;;;;;;;;5116984;27;19916;-79
2022/12/25 08:47:29;;;;;;;;;;;;;;;;;;5114374;27;19923;-79
2022/12/25 08:50:16;;;;;;;;;;;;;;;;;;5125067;27;19927;-79
2022/12/25 08:53:02;;;;;;;;;;;;;;;;;;5110740;27;19916;-79
2022/12/25 08:55:48;;;;;;;;;;;;;;;;;;5124246;27;19919;-78
2022/12/25 08:58:35;;;;;;;;;;;;;;;;;;5118321;27;19912;-78
2022/12/25 09:01:21;;;;;;;;;;;;;;;;;;5113061;27;20232;-77
2022/12/25 09:04:08;;;;;;;;;;;;;;;;;;5127502;27;19953;-77
2022/12/25 09:06:54;;;;;;;;;;;;;;;;;;5110465;27;19911;-78
2022/12/25 09:09:42;;;;;;;;;;;;;;;;;;5127297;27;19922;-78
2022/12/25 09:12:28;;;;;;;;;;;;;;;;;;5117898;27;19916;-78
2022/12/25 09:15:15;;;;;;;;;;;;;;;;;;5125572;27;19953;-77
2022/12/25 09:18:01;;;;;;;;;;;;;;;;;;5125808;27;20013;-80
2022/12/25 09:20:48;;;;;;;;;;;;;;;;;;5120025;27;19916;-78
2022/12/25 09:23:34;;;;;;;;;;;;;;;;;;5126217;27;19919;-78
2022/12/25 09:26:21;;;;;;;;;;;;;;;;;;5126702;27;19907;-79
2022/12/25 09:29:07;;;;;;;;;;;;;;;;;;5129215;27;20319;-79
2022/12/25 09:31:54;;;;;;;;;;;;;;;;;;5118504;27;19926;-79
2022/12/25 09:34:40;;;;;;;;;;;;;;;;;;5118679;27;19912;-78
2022/12/25 09:37:28;;;;;;;;;;;;;;;;;;5118673;27;19911;-79
2022/12/25 09:40:14;;;;;;;;;;;;;;;;;;5116227;27;20379;-78
2022/12/25 09:43:01;;;;;;;;;;;;;;;;;;5124367;27;19926;-78
2022/12/25 09:45:47;;;;;;;;;;;;;;;;;;5124848;27;19919;-81
2022/12/25 09:48:33;;;;;;;;;;;;;;;;;;5122160;27;19908;-80
2022/12/25 09:51:20;;;;;;;;;;;;;;;;;;5118618;27;19919;-81
2022/12/25 09:54:06;;;;;;;;;;;;;;;;;;5106214;27;19923;-80
2022/12/25 09:56:53;;;;;;;;;;;;;;;;;;5121555;27;19911;-78
2022/12/25 09:59:39;;;;;;;;;;;;;;;;;;5117049;27;20015;-80
2022/12/25 10:02:26;;;;;;;;;;;;;;;;;;5120201;27;19911;-78
2022/12/25 10:05:12;;;;;;;;;;;;;;;;;;5122079;27;19915;-79
2022/12/25 10:07:59;;;;;;;;;;;;;;;;;;5119277;27;19911;-75
2022/12/25 10:10:45;;;;;;;;;;;;;;;;;;5119423;27;19919;-77
2022/12/25 10:13:32;;;;;;;;;;;;;;;;;;5117486;27;20330;-76
2022/12/25 10:16:18;;;;;;;;;;;;;;;;;;5121857;27;19911;-76
2022/12/25 10:19:05;;;;;;;;;;;;;;;;;;5123410;27;19919;-78
2022/12/25 10:21:54;;;;;;;;;;;;;;;;;;5125208;27;19946;-77
2022/12/25 10:24:40;;;;;;;;;;;;;;;;;;5118965;27;19922;-75
2022/12/25 10:27:27;;;;;;;;;;;;;;;;;;5117455;27;20235;-77
2022/12/25 10:30:16;;;;;;;;;;;;;;;;;;5119170;27;19916;-78
2022/12/25 10:33:02;;;;;;;;;;;;;;;;;;5122459;27;19918;-80
2022/12/25 10:35:49;;;;;;;;;;;;;;;;;;5103264;27;20401;-83
2022/12/25 10:38:35;;;;;;;;;;;;;;;;;;5120847;27;19912;-78
2022/12/25 10:41:22;;;;;;;;;;;;;;;;;;5119287;27;19926;-81
2022/12/25 10:44:08;;;;;;;;;;;;;;;;;;5121724;27;20401;-81
2022/12/25 10:46:55;;;;;;;;;;;;;;;;;;5120481;27;19911;-82
2022/12/25 10:49:41;;;;;;;;;;;;;;;;;;5106931;27;20289;-80
2022/12/25 10:52:28;;;;;;;;;;;;;;;;;;5122771;27;19923;-80
2022/12/25 10:55:14;;;;;;;;;;;;;;;;;;5119961;27;19926;-82
2022/12/25 10:58:01;;;;;;;;;;;;;;;;;;5119281;27;20389;-82
2022/12/25 11:00:47;;;;;;;;;;;;;;;;;;5121947;27;19927;-82
2022/12/25 11:03:34;;;;;;;;;;;;;;;;;;5122447;27;19916;-82
2022/12/25 11:06:20;;;;;;;;;;;;;;;;;;5122688;27;19930;-81
2022/12/25 11:09:07;;;;;;;;;;;;;;;;;;5108619;27;20371;-82
2022/12/25 11:11:53;;;;;;;;;;;;;;;;;;5120348;27;20034;-83
2022/12/25 11:14:40;;;;;;;;;;;;;;;;;;5121365;27;19929;-81
2022/12/25 11:17:26;;;;;;;;;;;;;;;;;;5120741;27;19911;-82
2022/12/25 11:20:16;;;;;;;;;;;;;;;;;;5122281;27;19916;-84
2022/12/25 11:23:02;;;;;;;;;;;;;;;;;;5120373;27;20105;-82
2022/12/25 11:25:51;;;;;;;;;;;;;;;;;;5119709;27;20296;-81
2022/12/25 11:28:38;;;;;;;;;;;;;;;;;;5116359;27;20472;-80
2022/12/25 11:31:24;;;;;;;;;;;;;;;;;;5117489;27;19931;-81
2022/12/25 11:34:10;;;;;;;;;;;;;;;;;;5117409;27;20542;-82
2022/12/25 11:37:02;;;;;;;;;;;;;;;;;;5122804;27;19915;-82
2022/12/25 11:39:49;;;;;;;;;;;;;;;;;;5118809;27;19918;-82
2022/12/25 11:42:35;;;;;;;;;;;;;;;;;;5121619;27;19977;-83
2022/12/25 11:45:22;;;;;;;;;;;;;;;;;;5120840;27;19922;-79
2022/12/25 11:48:08;;;;;;;;;;;;;;;;;;5113284;27;19912;-80
2022/12/25 11:50:55;;;;;;;;;;;;;;;;;;5121075;27;20402;-81
2022/12/25 11:53:41;;;;;;;;;;;;;;;;;;5120785;27;19919;-80
2022/12/25 11:56:28;;;;;;;;;;;;;;;;;;5121670;27;19912;-80
2022/12/25 11:59:15;;;;;;;;;;;;;;;;;;5122019;27;19958;-81
2022/12/25 12:02:01;;;;;;;;;;;;;;;;;;5121439;28;19976;-80
2022/12/25 12:04:48;;;;;;;;;;;;;;;;;;5124695;27;19919;-80
2022/12/25 12:07:34;;;;;;;;;;;;;;;;;;5122761;28;19911;-80
2022/12/25 12:10:21;;;;;;;;;;;;;;;;;;5121224;28;19923;-79
2022/12/25 12:13:07;;;;;;;;;;;;;;;;;;5119275;28;19915;-79
2022/12/25 12:15:56;;;;;;;;;;;;;;;;;;5121940;27;20354;-81
2022/12/25 12:18:43;;;;;;;;;;;;;;;;;;5122404;28;19919;-79
2022/12/25 12:21:30;;;;;;;;;;;;;;;;;;5122342;27;19961;-80
2022/12/25 12:24:16;;;;;;;;;;;;;;;;;;5119806;28;19914;-80
2022/12/25 12:27:03;;;;;;;;;;;;;;;;;;5121714;28;20651;-80
2022/12/25 12:29:49;;;;;;;;;;;;;;;;;;5121673;27;20797;-78
2022/12/25 12:32:36;;;;;;;;;;;;;;;;;;5122477;28;20346;-79
2022/12/25 12:35:22;;;;;;;;;;;;;;;;;;5120022;27;19915;-79
2022/12/25 12:38:09;;;;;;;;;;;;;;;;;;5122245;28;19912;-79
2022/12/25 12:40:55;;;;;;;;;;;;;;;;;;5118828;27;19915;-78
2022/12/25 12:43:42;;;;;;;;;;;;;;;;;;5121168;28;19911;-78
2022/12/25 12:46:28;;;;;;;;;;;;;;;;;;5120094;27;19940;-80
2022/12/25 12:49:15;;;;;;;;;;;;;;;;;;5119477;28;20370;-81
2022/12/25 12:52:01;;;;;;;;;;;;;;;;;;5119560;28;19931;-80
2022/12/25 12:54:48;;;;;;;;;;;;;;;;;;5122613;28;19942;-80
2022/12/25 12:57:41;;;;;;;;;;;;;;;;;;5106246;28;19912;-81
2022/12/25 13:00:28;;;;;;;;;;;;;;;;;;5120038;27;19938;-81
2022/12/25 13:03:14;;;;;;;;;;;;;;;;;;5119988;28;19911;-80
2022/12/25 13:06:01;;;;;;;;;;;;;;;;;;5121805;27;19926;-79
2022/12/25 13:08:47;;;;;;;;;;;;;;;;;;5120908;27;19939;-78
2022/12/25 13:11:34;;;;;;;;;;;;;;;;;;5125597;27;19973;-80
2022/12/25 13:14:20;;;;;;;;;;;;;;;;;;5118864;27;19916;-81
2022/12/25 13:17:07;;;;;;;;;;;;;;;;;;5106535;27;19915;-80
2022/12/25 13:19:54;;;;;;;;;;;;;;;;;;5125356;27;19922;-78
2022/12/25 13:22:40;;;;;;;;;;;;;;;;;;5122732;27;19927;-78
2022/12/25 13:25:27;;;;;;;;;;;;;;;;;;5109590;27;19916;-79
2022/12/25 13:28:13;;;;;;;;;;;;;;;;;;5119549;27;19919;-79
2022/12/25 13:31:00;;;;;;;;;;;;;;;;;;5123781;27;19923;-79
2022/12/25 13:33:47;;;;;;;;;;;;;;;;;;5125468;27;19918;-77
2022/12/25 13:36:33;;;;;;;;;;;;;;;;;;5123734;27;19925;-78
2022/12/25 13:39:20;;;;;;;;;;;;;;;;;;5120780;27;19945;-78
2022/12/25 13:42:09;;;;;;;;;;;;;;;;;;5121099;27;19922;-78
2022/12/25 13:44:56;;;;;;;;;;;;;;;;;;5123607;27;19911;-78
2022/12/25 13:47:44;;;;;;;;;;;;;;;;;;5125591;27;19915;-78
2022/12/25 13:50:30;;;;;;;;;;;;;;;;;;5120853;27;20291;-80
2022/12/25 13:53:17;;;;;;;;;;;;;;;;;;5108707;27;19912;-80
2022/12/25 13:56:03;;;;;;;;;;;;;;;;;;5118705;27;20287;-76
2022/12/25 13:58:50;;;;;;;;;;;;;;;;;;5105516;27;19915;-78
2022/12/25 14:01:37;;;;;;;;;;;;;;;;;;5120734;27;19922;-77
2022/12/25 14:04:24;;;;;;;;;;;;;;;;;;5115841;27;19912;-78
2022/12/25 14:07:11;;;;;;;;;;;;;;;;;;5114454;27;19920;-78
2022/12/25 14:09:57;;;;;;;;;;;;;;;;;;5120627;27;19912;-78
2022/12/25 14:12:43;;;;;;;;;;;;;;;;;;5105799;27;19919;-77
2022/12/25 14:15:30;;;;;;;;;;;;;;;;;;5133174;27;20461;-77
2022/12/25 14:18:16;;;;;;;;;;;;;;;;;;5120561;27;19997;-77
2022/12/25 14:21:03;;;;;;;;;;;;;;;;;;5121705;27;19920;-78
2022/12/25 14:23:49;;;;;;;;;;;;;;;;;;5118350;27;19925;-83
2022/12/25 14:26:36;;;;;;;;;;;;;;;;;;5120349;27;20708;-81
2022/12/25 14:29:22;;;;;;;;;;;;;;;;;;5130910;27;19918;-80
2022/12/25 14:32:09;;;;;;;;;;;;;;;;;;5124240;27;19923;-80
2022/12/25 14:34:55;;;;;;;;;;;;;;;;;;5115356;27;19934;-79
2022/12/25 14:37:42;;;;;;;;;;;;;;;;;;5118290;27;19924;-80
2022/12/25 14:40:31;;;;;;;;;;;;;;;;;;5121494;27;20299;-75
2022/12/25 14:43:18;;;;;;;;;;;;;;;;;;5120356;27;19912;-78
2022/12/25 14:46:05;;;;;;;;;;;;;;;;;;5101612;28;19923;-82
2022/12/25 14:48:51;;;;;;;;;;;;;;;;;;5097426;27;19926;-79
2022/12/25 14:51:38;;;;;;;;;;;;;;;;;;5097905;28;19919;-79
2022/12/25 14:54:24;;;;;;;;;;;;;;;;;;5099207;28;19916;-79
2022/12/25 14:57:11;;;;;;;;;;;;;;;;;;5101495;27;19923;-82
2022/12/25 14:59:57;;;;;;;;;;;;;;;;;;5101240;28;20535;-82
2022/12/25 15:02:44;;;;;;;;;;;;;;;;;;5104140;27;20532;-83
2022/12/25 15:05:30;;;;;;;;;;;;;;;;;;5104244;28;19922;-82
2022/12/25 15:08:17;;;;;;;;;;;;;;;;;;5100699;28;19911;-82
2022/12/25 15:11:04;;;;;;;;;;;;;;;;;;5103487;28;20387;-82
2022/12/25 15:13:50;;;;;;;;;;;;;;;;;;5088295;28;19916;-81
2022/12/25 15:16:37;;;;;;;;;;;;;;;;;;5102966;28;19926;-80
2022/12/25 15:19:24;;;;;;;;;;;;;;;;;;5099690;28;19908;-83
2022/12/25 15:22:10;;;;;;;;;;;;;;;;;;5099822;28;19938;-82
2022/12/25 15:24:56;;;;;;;;;;;;;;;;;;5104893;28;19912;-82
2022/12/25 15:27:43;;;;;;;;;;;;;;;;;;5100321;28;19922;-81
2022/12/25 15:30:32;;;;;;;;;;;;;;;;;;5100583;28;19912;-81
2022/12/25 15:33:18;;;;;;;;;;;;;;;;;;5086355;28;19916;-82
2022/12/25 15:36:05;;;;;;;;;;;;;;;;;;5092651;27;19912;-82
2022/12/25 15:38:51;;;;;;;;;;;;;;;;;;5101971;28;19916;-82
2022/12/25 15:44:44;;;;;;;;;;;;;;;;;;5101218;28;19969;-83
2022/12/25 15:47:31;;;;;;;;;;;;;;;;;;5103944;28;19915;-82
2022/12/25 15:50:18;;;;;;;;;;;;;;;;;;5101123;28;19913;-83
2022/12/25 15:53:04;;;;;;;;;;;;;;;;;;5103053;28;19924;-82
2022/12/25 15:55:50;;;;;;;;;;;;;;;;;;5100911;28;19938;-82
2022/12/25 15:58:37;;;;;;;;;;;;;;;;;;5088030;28;19912;-82
2022/12/25 16:01:23;;;;;;;;;;;;;;;;;;5102304;28;19923;-81
2022/12/25 16:04:10;;;;;;;;;;;;;;;;;;5104022;28;21576;-81
2022/12/25 16:06:56;;;;;;;;;;;;;;;;;;5102035;28;19916;-80
2022/12/25 16:09:43;;;;;;;;;;;;;;;;;;5089660;28;19994;-82
2022/12/25 16:12:29;;;;;;;;;;;;;;;;;;5099950;28;19923;-82
2022/12/25 16:15:16;;;;;;;;;;;;;;;;;;5100596;28;19912;-82
2022/12/25 16:18:03;;;;;;;;;;;;;;;;;;5100819;28;20416;-83
2022/12/25 16:20:50;;;;;;;;;;;;;;;;;;5097044;28;19927;-81
2022/12/25 16:23:36;;;;;;;;;;;;;;;;;;5101143;28;20302;-80
2022/12/25 16:26:23;;;;;;;;;;;;;;;;;;5095763;28;19916;-82
2022/12/25 16:29:09;;;;;;;;;;;;;;;;;;5104255;28;20378;-82
2022/12/25 16:31:56;;;;;;;;;;;;;;;;;;5108978;28;19923;-81
2022/12/25 16:34:42;;;;;;;;;;;;;;;;;;5113261;28;19915;-83
2022/12/25 16:37:32;;;;;;;;;;;;;;;;;;5112126;28;20179;-82
2022/12/25 16:40:18;;;;;;;;;;;;;;;;;;5115761;28;19916;-82
2022/12/25 16:43:04;;;;;;;;;;;;;;;;;;5101109;28;19922;-83
2022/12/25 16:45:51;;;;;;;;;;;;;;;;;;5120724;28;19922;-82
2022/12/25 16:48:37;;;;;;;;;;;;;;;;;;5118835;27;19911;-81
2022/12/25 16:51:24;;;;;;;;;;;;;;;;;;5103440;28;19916;-83
2022/12/25 16:54:10;;;;;;;;;;;;;;;;;;5115286;28;20363;-82
2022/12/25 16:56:57;;;;;;;;;;;;;;;;;;5109219;28;19916;-82
2022/12/25 16:59:43;;;;;;;;;;;;;;;;;;5103805;28;20640;-83
2022/12/25 17:02:30;;;;;;;;;;;;;;;;;;5101214;28;19917;-83
2022/12/25 17:05:16;;;;;;;;;;;;;;;;;;5104122;28;19912;-82
2022/12/25 17:08:03;;;;;;;;;;;;;;;;;;5104402;28;20287;-83
2022/12/25 17:10:49;;;;;;;;;;;;;;;;;;5104697;28;19926;-82
2022/12/25 17:13:36;;;;;;;;;;;;;;;;;;5101726;28;19939;-83
2022/12/25 17:16:23;;;;;;;;;;;;;;;;;;5104462;27;19912;-82
2022/12/25 17:19:10;;;;;;;;;;;;;;;;;;5100823;28;19918;-82
2022/12/25 17:21:58;;;;;;;;;;;;;;;;;;5099520;28;19954;-81
2022/12/25 17:24:45;;;;;;;;;;;;;;;;;;5102639;28;19919;-82
2022/12/25 17:27:31;;;;;;;;;;;;;;;;;;5108828;28;20276;-82
2022/12/25 17:30:17;;;;;;;;;;;;;;;;;;5123148;28;19912;-82
2022/12/25 17:33:04;;;;;;;;;;;;;;;;;;5118487;28;19928;-82
2022/12/25 17:35:50;;;;;;;;;;;;;;;;;;5118176;28;20132;-81
2022/12/25 17:38:37;;;;;;;;;;;;;;;;;;5107096;28;19920;-82
2022/12/25 17:41:23;;;;;;;;;;;;;;;;;;5118464;27;19918;-83
2022/12/25 17:44:10;;;;;;;;;;;;;;;;;;5108418;28;19912;-81
2022/12/25 17:46:56;;;;;;;;;;;;;;;;;;5104627;27;19916;-82
2022/12/25 17:49:43;;;;;;;;;;;;;;;;;;5103898;28;19912;-83
2022/12/25 17:52:29;;;;;;;;;;;;;;;;;;5102124;28;19930;-83
2022/12/25 17:55:16;;;;;;;;;;;;;;;;;;5102600;28;19912;-82
2022/12/25 17:58:02;;;;;;;;;;;;;;;;;;5103727;28;19919;-82
2022/12/25 18:00:49;;;;;;;;;;;;;;;;;;5115117;28;19914;-81
2022/12/25 18:03:35;;;;;;;;;;;;;;;;;;5102357;28;19915;-82
2022/12/25 18:06:22;;;;;;;;;;;;;;;;;;5115255;28;19923;-83
2022/12/25 18:09:10;;;;;;;;;;;;;;;;;;5110496;28;19908;-81
2022/12/25 18:11:56;;;;;;;;;;;;;;;;;;5110395;28;19916;-82
2022/12/25 18:14:42;;;;;;;;;;;;;;;;;;5109310;28;19912;-80
2022/12/25 18:17:29;;;;;;;;;;;;;;;;;;5113385;28;19912;-84
2022/12/25 18:20:16;;;;;;;;;;;;;;;;;;5112328;28;20274;-83
2022/12/25 18:23:02;;;;;;;;;;;;;;;;;;5094205;28;19920;-82
2022/12/25 18:25:49;;;;;;;;;;;;;;;;;;5091995;28;19912;-81
2022/12/25 18:28:35;;;;;;;;;;;;;;;;;;5109934;28;19922;-82
2022/12/25 18:31:22;;;;;;;;;;;;;;;;;;5109499;28;19958;-82
2022/12/25 18:34:08;;;;;;;;;;;;;;;;;;5113437;28;20352;-83
2022/12/25 18:37:01;;;;;;;;;;;;;;;;;;5110138;28;19912;-82
2022/12/25 18:39:48;;;;;;;;;;;;;;;;;;5107729;28;20326;-82
2022/12/25 18:42:37;;;;;;;;;;;;;;;;;;5113205;28;19908;-83
2022/12/25 18:45:24;;;;;;;;;;;;;;;;;;5101646;28;19911;-84
2022/12/25 18:48:10;;;;;;;;;;;;;;;;;;5100285;27;19923;-83
2022/12/25 18:50:57;;;;;;;;;;;;;;;;;;5101063;28;20398;-83
2022/12/25 18:53:43;;;;;;;;;;;;;;;;;;5099883;28;19919;-82
2022/12/25 18:56:30;;;;;;;;;;;;;;;;;;5098232;28;19918;-82
2022/12/25 18:59:16;;;;;;;;;;;;;;;;;;5101492;28;19911;-82
2022/12/25 19:02:03;;;;;;;;;;;;;;;;;;5096507;28;19912;-82
2022/12/25 19:04:49;;;;;;;;;;;;;;;;;;5104317;28;19923;-83
2022/12/25 19:07:36;;;;;;;;;;;;;;;;;;5103197;28;20565;-82
2022/12/25 19:10:22;;;;;;;;;;;;;;;;;;5102735;28;19926;-83
2022/12/25 19:13:09;;;;;;;;;;;;;;;;;;5100338;28;19942;-83
2022/12/25 19:15:55;;;;;;;;;;;;;;;;;;5100836;28;19912;-81
2022/12/25 19:18:42;;;;;;;;;;;;;;;;;;5088804;28;19917;-83
2022/12/25 19:21:28;;;;;;;;;;;;;;;;;;5077535;28;19923;-82
2022/12/25 19:24:15;;;;;;;;;;;;;;;;;;5099138;28;19916;-83
2022/12/25 19:27:01;;;;;;;;;;;;;;;;;;5102590;28;19916;-82
2022/12/25 19:29:48;;;;;;;;;;;;;;;;;;5097883;28;19907;-83
2022/12/25 19:32:34;;;;;;;;;;;;;;;;;;5076334;28;19924;-82
2022/12/25 19:35:21;;;;;;;;;;;;;;;;;;5099169;28;19912;-84
2022/12/25 19:38:07;;;;;;;;;;;;;;;;;;5104878;28;19916;-82
2022/12/25 19:40:59;;;;;;;;;;;;;;;;;;5103820;28;19911;-81
2022/12/25 19:43:46;;;;;;;;;;;;;;;;;;5103643;28;19918;-82
2022/12/25 19:46:32;;;;;;;;;;;;;;;;;;5105002;28;19912;-82
2022/12/25 19:49:19;;;;;;;;;;;;;;;;;;5103180;28;19919;-81
2022/12/25 19:52:05;;;;;;;;;;;;;;;;;;5101847;28;19950;-83
2022/12/25 19:54:52;;;;;;;;;;;;;;;;;;5101894;28;19916;-82
2022/12/25 19:57:38;;;;;;;;;;;;;;;;;;5089967;28;19922;-82
2022/12/25 20:00:28;;;;;;;;;;;;;;;;;;5101850;27;19912;-83
2022/12/25 20:03:14;;;;;;;;;;;;;;;;;;5104723;28;19918;-82
2022/12/25 20:06:01;;;;;;;;;;;;;;;;;;5102775;28;20425;-82
2022/12/25 20:08:47;;;;;;;;;;;;;;;;;;5103364;28;19908;-81
2022/12/25 20:11:34;;;;;;;;;;;;;;;;;;5106418;28;19915;-82
2022/12/25 20:14:20;;;;;;;;;;;;;;;;;;5105970;28;19916;-80
2022/12/25 20:17:07;;;;;;;;;;;;;;;;;;5086028;28;19946;-81
2022/12/25 20:19:53;;;;;;;;;;;;;;;;;;5086711;28;20249;-81
2022/12/25 20:22:40;;;;;;;;;;;;;;;;;;5108339;28;19923;-82
2022/12/25 20:25:26;;;;;;;;;;;;;;;;;;5106251;28;19918;-81
2022/12/25 20:28:12;;;;;;;;;;;;;;;;;;5106879;28;19938;-83
2022/12/25 20:30:59;;;;;;;;;;;;;;;;;;5091787;28;19908;-82
2022/12/25 20:33:45;;;;;;;;;;;;;;;;;;5104469;28;19916;-81
2022/12/25 20:36:32;;;;;;;;;;;;;;;;;;5104903;28;19915;-81
2022/12/25 20:39:18;;;;;;;;;;;;;;;;;;5104901;28;20347;-82
2022/12/25 20:42:05;;;;;;;;;;;;;;;;;;5108111;28;19919;-82
2022/12/25 20:44:52;;;;;;;;;;;;;;;;;;5104648;28;19923;-83
2022/12/25 20:47:38;;;;;;;;;;;;;;;;;;5105785;27;20283;-81
2022/12/25 20:50:25;;;;;;;;;;;;;;;;;;5105099;27;19916;-83
2022/12/25 20:53:11;;;;;;;;;;;;;;;;;;5103408;28;20443;-82
2022/12/25 20:55:58;;;;;;;;;;;;;;;;;;5088713;28;19911;-81
2022/12/25 20:58:44;;;;;;;;;;;;;;;;;;5104605;28;19939;-82